»·PEaware :: UAL576 KSFO-KLAS

UAL576 :: KSFO-KLAS

FLIGHT INFORMATION

Flight Status: Arrived
Operator:
United Airlines
More flights by this operator :: More flights under this callsign
Pilot: Anonymous 8274 (8274)
Aircraft: BOEING 737-200
(B732)
More flights by this aircraft type
Origin: KSFO San Francisco Intl
United States
Destination: KLAS McCarran Intl
United States
More flights between these airports :: More routes between these airports
Route: +SFO4 LIN J84 BABIT J92 BTY FUZZY8
File this flight plan on PilotEdge
Remarks:
Altitude:
(Current/Filed)
31,000ft
Speed:
(Current/Filed)
460kts
Departed: 18-Oct-18 04:46 PM
Arrived: 18-Oct-18 05:57 PM
Distance/Time
Traveled:
359nm/1:10
Distance/Time
To Go:
Arrived

Flight Plot

Page will automatically refresh every two minutes.

Flight plan parsing failed; only flown route is shown


Map Options




Map Legend


Flown Route
Filed Route
Departure Airport
Arrival Airport
Navaid (VOR, NDB)
Fix

Horizontal Profiles

Position Reports

Time Latitude Longitude Heading Altitude Ground
Speed
18-Oct-18 16:07 37.620204 -122.389379 26 21ft 0kts
18-Oct-18 16:08 37.620204 -122.389379 26 21ft 0kts
18-Oct-18 16:09 37.620204 -122.389379 26 21ft 0kts
18-Oct-18 16:10 37.620204 -122.389379 26 21ft 0kts
18-Oct-18 16:11 37.620204 -122.389379 26 21ft 0kts
18-Oct-18 16:12 37.620204 -122.389379 26 21ft 0kts
18-Oct-18 16:13 37.620204 -122.389379 26 21ft 0kts
18-Oct-18 16:14 37.620204 -122.389379 26 21ft 0kts
18-Oct-18 16:15 37.620204 -122.389379 26 21ft 0kts
18-Oct-18 16:16 37.620204 -122.389379 26 21ft 0kts
18-Oct-18 16:17 37.620204 -122.389379 26 21ft 0kts
18-Oct-18 16:18 37.620204 -122.389379 26 21ft 0kts
18-Oct-18 16:19 37.620204 -122.389379 26 21ft 0kts
18-Oct-18 16:20 37.620204 -122.389379 26 21ft 0kts
18-Oct-18 16:21 37.620204 -122.389379 26 21ft 0kts
18-Oct-18 16:22 37.620204 -122.389379 26 21ft 0kts
18-Oct-18 16:23 37.620207 -122.389377 26 21ft 0kts
18-Oct-18 16:24 37.619874 -122.389589 27 21ft 2kts
18-Oct-18 16:25 37.619375 -122.389642 319 21ft 2kts
18-Oct-18 16:26 37.619286 -122.389498 297 21ft 0kts
18-Oct-18 16:27 37.619286 -122.389498 297 21ft 0kts
18-Oct-18 16:28 37.619286 -122.389498 297 21ft 0kts
18-Oct-18 16:29 37.619286 -122.389498 297 21ft 0kts
18-Oct-18 16:30 37.619286 -122.389498 297 21ft 0kts
18-Oct-18 16:31 37.619286 -122.389498 297 21ft 0kts
18-Oct-18 16:32 37.619286 -122.389498 297 21ft 0kts
18-Oct-18 16:33 37.619286 -122.389498 297 21ft 0kts
18-Oct-18 16:34 37.619286 -122.389498 297 21ft 0kts
18-Oct-18 16:35 37.619286 -122.389498 297 21ft 0kts
18-Oct-18 16:36 37.619286 -122.389498 297 21ft 0kts
18-Oct-18 16:37 37.619286 -122.389498 297 21ft 0kts
18-Oct-18 16:38 37.620065 -122.391338 299 21ft 0kts
18-Oct-18 16:39 37.620065 -122.391338 299 21ft 0kts
18-Oct-18 16:40 37.620244 -122.391754 299 21ft 11kts
18-Oct-18 16:41 37.622517 -122.388842 117 21ft 17kts
18-Oct-18 16:42 37.619948 -122.382703 118 21ft 22kts
18-Oct-18 16:43 37.614592 -122.380992 208 21ft 29kts
18-Oct-18 16:44 37.608906 -122.384729 152 21ft 11kts
18-Oct-18 16:45 37.608463 -122.383856 117 21ft 0kts
18-Oct-18 16:46 37.608463 -122.383856 117 21ft 0kts
18-Oct-18 16:47 37.608554 -122.382487 24 21ft 9kts
18-Oct-18 16:48 37.624478 -122.371576 25 229ft 154kts
18-Oct-18 16:49 37.656731 -122.331706 48 2028ft 200kts
18-Oct-18 16:50 37.697468 -122.271001 46 4536ft 247kts
18-Oct-18 16:51 37.742825 -122.201423 67 7394ft 269kts
18-Oct-18 16:52 37.771538 -122.114024 68 10365ft 272kts
18-Oct-18 16:53 37.797195 -122.034639 72 11586ft 316kts
18-Oct-18 16:54 37.830664 -121.903785 73 13827ft 346kts
18-Oct-18 16:55 37.861103 -121.786362 73 15863ft 357kts
18-Oct-18 16:56 37.892768 -121.665823 73 17567ft 370kts
18-Oct-18 16:57 37.920394 -121.561492 72 18830ft 379kts
18-Oct-18 16:58 37.959673 -121.412806 72 20430ft 389kts
18-Oct-18 16:59 37.988865 -121.304003 68 21430ft 398kts
18-Oct-18 17:00 38.033221 -121.174984 71 22540ft 405kts
18-Oct-18 17:01 38.072203 -121.040899 71 23548ft 412kts
18-Oct-18 17:02 38.111202 -120.905629 73 24481ft 417kts
18-Oct-18 17:03 38.129633 -120.762247 82 25324ft 419kts
18-Oct-18 17:04 38.146280 -120.615662 82 26093ft 423kts
18-Oct-18 17:05 38.168902 -120.468910 75 26781ft 428kts
18-Oct-18 17:06 38.198399 -120.326965 76 27572ft 427kts
18-Oct-18 17:07 38.226746 -120.180609 78 28142ft 430kts
18-Oct-18 17:08 38.253187 -120.031451 78 28666ft 433kts
18-Oct-18 17:09 38.279475 -119.882463 77 29126ft 436kts
18-Oct-18 17:10 38.305942 -119.731962 77 29593ft 437kts
18-Oct-18 17:11 38.332424 -119.581112 77 29989ft 440kts
18-Oct-18 17:12 38.359104 -119.429445 77 30581ft 437kts
18-Oct-18 17:13 38.385351 -119.280933 78 30881ft 440kts
18-Oct-18 17:14 38.409734 -119.129071 79 31175ft 442kts
18-Oct-18 17:15 38.432882 -118.975079 80 31293ft 448kts
18-Oct-18 17:16 38.446751 -118.816204 84 31293ft 455kts
18-Oct-18 17:17 38.464674 -118.655719 81 31291ft 456kts
18-Oct-18 17:18 38.492550 -118.498453 76 31239ft 456kts
18-Oct-18 17:19 38.516718 -118.347812 93 31227ft 451kts
18-Oct-18 17:20 38.453721 -118.219757 141 31240ft 438kts
18-Oct-18 17:21 38.354141 -118.136722 152 31262ft 434kts
18-Oct-18 17:22 38.249976 -118.062303 149 31259ft 434kts
18-Oct-18 17:23 38.160064 -117.959918 133 31266ft 437kts
18-Oct-18 17:24 38.077933 -117.847139 136 31264ft 437kts
18-Oct-18 17:25 37.990494 -117.740772 143 31270ft 435kts
18-Oct-18 17:26 37.893710 -117.657888 150 31264ft 433kts
18-Oct-18 17:27 37.793280 -117.580151 150 31266ft 434kts
18-Oct-18 17:28 37.692914 -117.496162 147 31266ft 435kts
18-Oct-18 17:29 37.593476 -117.410222 149 31261ft 436kts
18-Oct-18 17:30 37.493318 -117.333893 150 31264ft 438kts
18-Oct-18 17:31 37.390253 -117.253070 148 31264ft 440kts
18-Oct-18 17:32 37.287848 -117.170256 146 31263ft 442kts
18-Oct-18 17:33 37.187847 -117.080668 145 31265ft 444kts
18-Oct-18 17:34 37.087140 -116.990249 145 30614ft 451kts
18-Oct-18 17:35 36.986818 -116.900518 145 28038ft 441kts
18-Oct-18 17:36 36.890531 -116.820609 147 25731ft 428kts
18-Oct-18 17:37 36.793144 -116.741463 145 24162ft 412kts
18-Oct-18 17:38 36.723455 -116.632629 130 24161ft 403kts
18-Oct-18 17:39 36.646914 -116.522131 130 24159ft 435kts
18-Oct-18 17:40 36.568837 -116.409126 130 24156ft 427kts
18-Oct-18 17:41 36.495560 -116.303158 131 23700ft 415kts
18-Oct-18 17:42 36.421689 -116.195981 130 21695ft 406kts
18-Oct-18 17:43 36.349942 -116.091363 130 19707ft 394kts
18-Oct-18 17:44 36.281477 -115.990999 130 16743ft 378kts
18-Oct-18 17:45 36.215997 -115.898892 132 15986ft 336kts
18-Oct-18 17:46 36.175785 -115.795072 112 15992ft 334kts
18-Oct-18 17:47 36.139770 -115.688845 112 15994ft 339kts
18-Oct-18 17:48 36.103837 -115.582893 112 14659ft 333kts
18-Oct-18 17:49 36.068805 -115.480043 111 12850ft 320kts
18-Oct-18 17:50 36.036904 -115.379278 101 10998ft 309kts
18-Oct-18 17:51 36.024966 -115.283607 100 10089ft 286kts
18-Oct-18 17:52 36.014967 -115.189879 97 8983ft 271kts
18-Oct-18 17:53 36.011102 -115.105400 91 8062ft 228kts
18-Oct-18 17:54 36.016203 -115.028599 91 6074ft 228kts
18-Oct-18 17:55 36.050415 -114.981925 0 4334ft 219kts
18-Oct-18 17:56 36.078467 -115.032216 256 3580ft 203kts
18-Oct-18 17:57 36.073598 -115.089811 269 2713ft 151kts
18-Oct-18 17:58 36.073649 -115.139156 270 2120ft 113kts
18-Oct-18 17:59 36.076249 -115.151893 336 2120ft 21kts
18-Oct-18 18:00 36.077500 -115.152631 341 2120ft 0kts
18-Oct-18 18:01 36.077500 -115.152631 341 2120ft 0kts
18-Oct-18 18:02 36.078030 -115.151726 90 2120ft 15kts
18-Oct-18 18:03 36.077624 -115.144917 94 2120ft 20kts
18-Oct-18 18:04 36.079384 -115.141630 1 2120ft 14kts
18-Oct-18 18:05 36.082206 -115.139997 45 2120ft 0kts
18-Oct-18 18:06 36.082206 -115.139998 45 2120ft 0kts
18-Oct-18 18:07 36.082206 -115.139998 45 2120ft 0kts
18-Oct-18 18:08 36.077536 -115.141946 66 2120ft 13kts

Navigation Log

Ident Type
Flight plan parsing failed, navigation log unavailable